Time;durP1;ratioP1;P1;durP2;ratioP2;P2;SDS_P1;SDS_P2;PMS_P1;PMS_P2;Temp;Humidity;BMP_temperature;BMP_pressure;BME280_temperature;BME280_humidity;BME280_pressure;Samples;Min_cycle;Max_cycle;Signal;HPM_P1;HPM_P2
2022/03/28 00:01:58;;;;;;;14.83;6.87;;;;;;;;;;5032131;28;20237;-80
2022/03/28 00:04:25;;;;;;;8.67;5.90;;;;;;;;;;5031877;28;20572;-81
2022/03/28 00:06:53;;;;;;;10.03;6.03;;;;;;;;;;5031894;28;20293;-81
2022/03/28 00:09:21;;;;;;;8.23;6.30;;;;;;;;;;5032066;28;20198;-80
2022/03/28 00:11:48;;;;;;;6.93;5.53;;;;;;;;;;5031959;28;20227;-80
2022/03/28 00:14:15;;;;;;;7.17;5.40;;;;;;;;;;4992493;28;20200;-80
2022/03/28 00:16:42;;;;;;;7.77;5.50;;;;;;;;;;4992693;28;20204;-80
2022/03/28 00:19:09;;;;;;;7.73;5.40;;;;;;;;;;4992412;28;20208;-81
2022/03/28 00:21:37;;;;;;;9.70;5.93;;;;;;;;;;4992570;28;20200;-81
2022/03/28 00:24:06;;;;;;;11.80;6.03;;;;;;;;;;4992190;28;20200;-81
2022/03/28 00:26:35;;;;;;;9.47;7.00;;;;;;;;;;4992477;28;20193;-80
2022/03/28 00:29:02;;;;;;;8.50;6.37;;;;;;;;;;4992602;28;20207;-81
2022/03/28 00:31:30;;;;;;;11.23;6.17;;;;;;;;;;4992208;28;20726;-81
2022/03/28 00:33:57;;;;;;;11.00;6.80;;;;;;;;;;5233112;23;21170;-83
2022/03/28 00:36:24;;;;;;;8.47;5.70;;;;;;;;;;5013309;28;20223;-83
2022/03/28 00:38:51;;;;;;;8.97;6.20;;;;;;;;;;5011780;28;20206;-83
2022/03/28 00:41:20;;;;;;;10.23;6.23;;;;;;;;;;5013821;28;20254;-83
2022/03/28 00:43:54;;;;;;;6.87;5.57;;;;;;;;;;5014958;28;20746;-83
2022/03/28 00:46:22;;;;;;;7.47;6.10;;;;;;;;;;5015486;28;20190;-84
2022/03/28 00:48:50;;;;;;;11.97;5.57;;;;;;;;;;5014815;28;20226;-84
2022/03/28 00:51:18;;;;;;;8.00;5.73;;;;;;;;;;5015164;28;20219;-84
2022/03/28 00:53:46;;;;;;;8.33;5.50;;;;;;;;;;5014996;28;20203;-83
2022/03/28 00:56:13;;;;;;;7.50;6.40;;;;;;;;;;5015207;28;20557;-84
2022/03/28 00:58:42;;;;;;;12.93;5.93;;;;;;;;;;5014820;28;20207;-84
2022/03/28 01:01:10;;;;;;;11.40;8.53;;;;;;;;;;5014683;28;20203;-83
2022/03/28 01:03:37;;;;;;;11.00;7.63;;;;;;;;;;5015130;28;20627;-84
2022/03/28 01:06:05;;;;;;;7.43;6.03;;;;;;;;;;5014993;28;20207;-84
2022/03/28 01:08:33;;;;;;;12.67;6.47;;;;;;;;;;5014676;28;20204;-83
2022/03/28 01:11:03;;;;;;;10.43;6.73;;;;;;;;;;5014659;28;20266;-83
2022/03/28 01:13:30;;;;;;;8.70;6.40;;;;;;;;;;5014767;28;20207;-83
2022/03/28 01:15:59;;;;;;;7.80;6.23;;;;;;;;;;5014588;28;20199;-86
2022/03/28 01:18:26;;;;;;;11.63;6.57;;;;;;;;;;5015060;28;20690;-85
2022/03/28 01:20:56;;;;;;;11.33;6.63;;;;;;;;;;5014559;28;20210;-86
2022/03/28 01:23:23;;;;;;;10.47;7.00;;;;;;;;;;5014837;28;20183;-85
2022/03/28 01:25:51;;;;;;;8.20;6.70;;;;;;;;;;5014620;28;20195;-86
2022/03/28 01:28:19;;;;;;;13.63;8.97;;;;;;;;;;5014584;28;20203;-86
2022/03/28 01:30:46;;;;;;;9.60;7.13;;;;;;;;;;5014360;28;20234;-86
2022/03/28 01:33:14;;;;;;;15.33;7.00;;;;;;;;;;5015383;28;20451;-86
2022/03/28 01:35:43;;;;;;;11.53;8.70;;;;;;;;;;4964794;28;1458226;-85
2022/03/28 01:38:14;;;;;;;10.33;7.00;;;;;;;;;;5015481;28;20207;-85
2022/03/28 01:40:45;;;;;;;13.77;9.00;;;;;;;;;;5015905;28;20668;-85
2022/03/28 01:43:13;;;;;;;10.53;8.93;;;;;;;;;;5015293;28;20187;-85
2022/03/28 01:45:40;;;;;;;11.77;9.13;;;;;;;;;;5015195;28;20196;-85
2022/03/28 01:48:08;;;;;;;12.47;8.30;;;;;;;;;;5015310;28;20731;-85
2022/03/28 01:50:36;;;;;;;9.63;8.27;;;;;;;;;;5015351;28;20203;-85
2022/03/28 01:53:03;;;;;;;8.43;6.73;;;;;;;;;;5015341;28;20223;-85
2022/03/28 01:55:32;;;;;;;10.13;7.10;;;;;;;;;;5015343;28;20239;-85
2022/03/28 01:57:59;;;;;;;12.67;8.93;;;;;;;;;;5015312;28;20282;-85
2022/03/28 02:00:28;;;;;;;11.53;8.00;;;;;;;;;;5014974;28;20286;-84
2022/03/28 02:02:56;;;;;;;14.07;7.97;;;;;;;;;;5015028;28;20203;-85
2022/03/28 02:05:23;;;;;;;15.20;8.00;;;;;;;;;;5015043;28;20196;-84
2022/03/28 02:07:51;;;;;;;9.30;8.13;;;;;;;;;;5014949;28;20603;-85
2022/03/28 02:10:19;;;;;;;10.47;7.07;;;;;;;;;;5014985;28;20585;-85
2022/03/28 02:12:48;;;;;;;10.23;7.60;;;;;;;;;;5015027;28;20219;-85
2022/03/28 02:15:16;;;;;;;16.70;9.43;;;;;;;;;;5014816;28;20235;-85
2022/03/28 02:17:43;;;;;;;11.70;7.87;;;;;;;;;;5015533;28;20757;-84
2022/03/28 02:20:13;;;;;;;15.07;7.33;;;;;;;;;;5014516;28;20206;-84
2022/03/28 02:22:41;;;;;;;14.33;8.23;;;;;;;;;;5015103;28;20192;-85
2022/03/28 02:25:10;;;;;;;13.87;7.70;;;;;;;;;;5014745;28;20297;-85
2022/03/28 02:27:38;;;;;;;13.20;8.10;;;;;;;;;;5014452;28;20206;-85
2022/03/28 02:30:08;;;;;;;10.23;6.87;;;;;;;;;;5014498;28;20206;-85
2022/03/28 02:32:36;;;;;;;18.07;10.27;;;;;;;;;;5014241;28;20298;-85
2022/03/28 02:35:04;;;;;;;16.73;10.30;;;;;;;;;;5014092;28;20676;-85
2022/03/28 02:37:31;;;;;;;16.07;10.60;;;;;;;;;;5014426;28;20286;-85
2022/03/28 02:39:59;;;;;;;13.30;9.37;;;;;;;;;;5013873;28;20298;-85
2022/03/28 02:42:26;;;;;;;10.23;7.97;;;;;;;;;;5014240;28;20218;-85
2022/03/28 02:44:54;;;;;;;8.90;6.07;;;;;;;;;;5014254;28;20641;-85
2022/03/28 02:47:23;;;;;;;13.50;8.57;;;;;;;;;;5013764;28;20255;-85
2022/03/28 02:49:51;;;;;;;12.03;9.57;;;;;;;;;;5014225;28;20203;-84
2022/03/28 02:52:18;;;;;;;15.30;10.27;;;;;;;;;;5014091;28;20226;-85
2022/03/28 02:54:45;;;;;;;10.70;8.90;;;;;;;;;;5015074;28;20287;-85
2022/03/28 02:57:12;;;;;;;13.50;7.43;;;;;;;;;;5013451;28;20282;-84
2022/03/28 02:59:39;;;;;;;9.70;7.53;;;;;;;;;;5016350;28;20212;-85
2022/03/28 03:02:06;;;;;;;12.90;8.10;;;;;;;;;;5032535;28;20191;-83
2022/03/28 03:04:35;;;;;;;21.70;10.73;;;;;;;;;;5032624;28;20198;-83
2022/03/28 03:07:03;;;;;;;16.33;10.07;;;;;;;;;;5036186;28;20578;-83
2022/03/28 03:09:30;;;;;;;17.77;9.30;;;;;;;;;;5036930;28;20203;-83
2022/03/28 03:11:58;;;;;;;14.43;10.50;;;;;;;;;;5033038;28;20229;-83
2022/03/28 03:14:25;;;;;;;15.90;7.73;;;;;;;;;;5032964;28;20205;-83
2022/03/28 03:16:52;;;;;;;12.17;8.17;;;;;;;;;;5032010;28;20205;-83
2022/03/28 03:19:20;;;;;;;10.67;6.93;;;;;;;;;;5032709;28;20685;-83
2022/03/28 03:21:49;;;;;;;15.97;8.43;;;;;;;;;;5032456;28;20237;-83
2022/03/28 03:24:16;;;;;;;6.57;5.87;;;;;;;;;;5032269;28;20206;-83
2022/03/28 03:26:43;;;;;;;10.80;8.10;;;;;;;;;;5031769;28;20233;-83
2022/03/28 03:29:11;;;;;;;9.63;8.43;;;;;;;;;;5031859;28;20198;-84
2022/03/28 03:31:39;;;;;;;9.93;8.07;;;;;;;;;;5031513;28;20210;-84
2022/03/28 03:34:06;;;;;;;12.40;7.37;;;;;;;;;;5031314;28;20222;-83
2022/03/28 03:36:33;;;;;;;11.10;7.57;;;;;;;;;;5032237;28;20186;-83
2022/03/28 03:39:02;;;;;;;11.70;7.27;;;;;;;;;;5032422;28;20697;-83
2022/03/28 03:41:29;;;;;;;8.97;7.00;;;;;;;;;;5033299;28;20579;-83
2022/03/28 03:43:56;;;;;;;12.97;9.43;;;;;;;;;;5032272;28;20233;-84
2022/03/28 03:46:24;;;;;;;17.50;10.43;;;;;;;;;;5031867;28;20199;-86
2022/03/28 03:48:51;;;;;;;14.70;9.13;;;;;;;;;;5031384;28;20202;-82
2022/03/28 03:51:18;;;;;;;24.00;9.63;;;;;;;;;;5031384;28;20281;-83
2022/03/28 03:53:45;;;;;;;13.33;9.27;;;;;;;;;;5017597;28;20234;-83
2022/03/28 03:56:14;;;;;;;13.60;9.77;;;;;;;;;;5011991;28;20584;-86
2022/03/28 03:58:41;;;;;;;22.17;13.37;;;;;;;;;;5012414;28;20290;-85
2022/03/28 04:01:09;;;;;;;11.77;9.13;;;;;;;;;;5012457;28;20197;-86
2022/03/28 04:03:36;;;;;;;13.33;8.97;;;;;;;;;;5012295;28;20261;-86
2022/03/28 04:06:04;;;;;;;11.30;9.07;;;;;;;;;;5012787;28;20199;-86
2022/03/28 04:08:32;;;;;;;12.13;8.27;;;;;;;;;;5012073;28;20249;-86
2022/03/28 04:10:59;;;;;;;14.90;8.80;;;;;;;;;;5012364;28;20232;-87
2022/03/28 04:13:28;;;;;;;162.87;66.17;;;;;;;;;;5012938;28;20325;-87
2022/03/28 04:15:55;;;;;;;61.93;28.03;;;;;;;;;;5013257;28;20643;-86
2022/03/28 04:18:25;;;;;;;48.30;23.77;;;;;;;;;;5012910;28;20289;-87
2022/03/28 04:20:52;;;;;;;41.77;21.23;;;;;;;;;;5013410;28;20230;-87
2022/03/28 04:23:20;;;;;;;29.53;15.17;;;;;;;;;;5025411;28;20194;-86
2022/03/28 04:25:47;;;;;;;25.67;13.87;;;;;;;;;;5035149;28;20195;-85
2022/03/28 04:28:15;;;;;;;30.17;16.10;;;;;;;;;;5031738;28;20200;-87
2022/03/28 04:30:43;;;;;;;52.40;30.53;;;;;;;;;;5012951;28;20195;-87
2022/03/28 04:33:11;;;;;;;16.30;12.67;;;;;;;;;;5013162;28;20219;-87
2022/03/28 04:35:39;;;;;;;15.10;8.77;;;;;;;;;;5012459;28;20259;-86
2022/03/28 04:38:07;;;;;;;8.90;8.00;;;;;;;;;;5012668;28;20203;-87
2022/03/28 04:40:35;;;;;;;12.37;8.43;;;;;;;;;;5012625;28;20195;-87
2022/03/28 04:43:02;;;;;;;14.93;8.13;;;;;;;;;;5012636;28;20231;-87
2022/03/28 04:45:30;;;;;;;13.83;7.57;;;;;;;;;;5013191;28;20204;-87
2022/03/28 04:47:59;;;;;;;16.77;8.03;;;;;;;;;;5013180;28;20214;-86
2022/03/28 04:50:26;;;;;;;15.17;6.50;;;;;;;;;;5012902;28;20246;-87
2022/03/28 04:52:54;;;;;;;21.73;14.03;;;;;;;;;;5013001;28;20255;-87
2022/03/28 04:55:21;;;;;;;17.37;11.47;;;;;;;;;;5013046;28;20683;-87
2022/03/28 04:57:48;;;;;;;9.53;7.77;;;;;;;;;;5012431;28;20290;-87
2022/03/28 05:00:17;;;;;;;10.90;8.20;;;;;;;;;;5012374;28;20210;-86
2022/03/28 05:02:44;;;;;;;15.33;10.73;;;;;;;;;;5012526;28;20199;-87
2022/03/28 05:05:13;;;;;;;14.60;11.63;;;;;;;;;;5012401;28;20199;-86
2022/03/28 05:07:40;;;;;;;16.87;10.37;;;;;;;;;;5012557;28;20298;-87
2022/03/28 05:10:09;;;;;;;13.97;10.27;;;;;;;;;;5012159;28;20286;-87
2022/03/28 05:12:36;;;;;;;11.43;8.80;;;;;;;;;;5012313;28;20228;-87
2022/03/28 05:15:04;;;;;;;13.20;8.27;;;;;;;;;;5012565;28;20205;-86
2022/03/28 05:17:32;;;;;;;12.37;8.03;;;;;;;;;;5012528;28;20200;-87
2022/03/28 05:20:00;;;;;;;11.13;7.20;;;;;;;;;;5012434;28;20191;-87
2022/03/28 05:22:29;;;;;;;13.87;8.23;;;;;;;;;;5012301;28;20199;-87
2022/03/28 05:24:57;;;;;;;11.30;8.03;;;;;;;;;;5012078;28;20315;-87
2022/03/28 05:27:24;;;;;;;8.33;7.47;;;;;;;;;;5014725;28;20599;-87
2022/03/28 05:29:52;;;;;;;11.20;8.43;;;;;;;;;;5016586;28;20588;-86
2022/03/28 05:32:19;;;;;;;10.13;8.17;;;;;;;;;;5015697;28;20294;-87
2022/03/28 05:34:46;;;;;;;13.40;8.47;;;;;;;;;;5015499;28;20642;-87
2022/03/28 05:37:15;;;;;;;15.60;9.23;;;;;;;;;;5016053;28;20199;-87
2022/03/28 05:39:44;;;;;;;14.77;9.77;;;;;;;;;;5015705;28;20281;-86
2022/03/28 05:42:11;;;;;;;22.27;11.70;;;;;;;;;;5015582;28;20691;-86
2022/03/28 05:44:40;;;;;;;32.67;15.97;;;;;;;;;;5017326;28;20683;-86
2022/03/28 05:47:08;;;;;;;23.10;13.50;;;;;;;;;;5020002;28;20239;-87
2022/03/28 05:49:35;;;;;;;16.37;9.33;;;;;;;;;;5015253;28;20294;-86
2022/03/28 05:52:02;;;;;;;24.93;15.17;;;;;;;;;;5016042;28;20635;-87
2022/03/28 05:54:30;;;;;;;17.47;12.23;;;;;;;;;;5016199;28;20774;-87
2022/03/28 05:56:58;;;;;;;19.70;11.10;;;;;;;;;;5015772;28;20290;-86
2022/03/28 05:59:25;;;;;;;19.20;13.37;;;;;;;;;;5015824;28;20211;-87
2022/03/28 06:01:53;;;;;;;21.30;14.10;;;;;;;;;;5015591;28;20199;-87
2022/03/28 06:04:23;;;;;;;14.30;7.83;;;;;;;;;;5015232;28;20262;-86
2022/03/28 06:06:51;;;;;;;11.77;8.20;;;;;;;;;;5015369;28;20286;-87
2022/03/28 06:09:18;;;;;;;14.83;8.00;;;;;;;;;;5014968;28;20585;-86
2022/03/28 06:11:45;;;;;;;13.37;9.90;;;;;;;;;;5014971;28;20235;-86
2022/03/28 06:14:14;;;;;;;13.67;7.87;;;;;;;;;;5013996;28;20578;-85
2022/03/28 06:16:41;;;;;;;12.30;9.83;;;;;;;;;;5014674;28;20295;-86
2022/03/28 06:19:08;;;;;;;17.10;8.43;;;;;;;;;;5014594;28;20199;-87
2022/03/28 06:21:35;;;;;;;12.10;8.37;;;;;;;;;;5014788;28;20278;-87
2022/03/28 06:24:03;;;;;;;12.07;8.50;;;;;;;;;;5014912;28;20203;-87
2022/03/28 06:26:30;;;;;;;13.97;7.90;;;;;;;;;;5014850;28;20199;-86
2022/03/28 06:28:58;;;;;;;17.77;11.10;;;;;;;;;;5014757;28;20214;-86
2022/03/28 06:31:26;;;;;;;15.03;7.97;;;;;;;;;;5015219;28;20238;-87
2022/03/28 06:34:01;;;;;;;13.73;9.53;;;;;;;;;;5014490;28;20845;-86
2022/03/28 06:36:29;;;;;;;12.50;8.70;;;;;;;;;;5015384;28;20187;-86
2022/03/28 06:38:56;;;;;;;17.53;7.17;;;;;;;;;;5013522;28;20693;-86
2022/03/28 06:41:23;;;;;;;14.33;7.67;;;;;;;;;;5014291;28;20198;-87
2022/03/28 06:43:51;;;;;;;11.27;8.53;;;;;;;;;;5014606;28;20214;-87
2022/03/28 06:46:20;;;;;;;16.33;7.57;;;;;;;;;;5014270;28;20199;-86
2022/03/28 06:48:52;;;;;;;16.23;8.73;;;;;;;;;;5014206;28;20206;-87
2022/03/28 06:51:19;;;;;;;9.80;6.90;;;;;;;;;;5014594;28;20191;-87
2022/03/28 06:53:48;;;;;;;9.90;6.67;;;;;;;;;;5015133;28;20239;-87
2022/03/28 06:56:16;;;;;;;13.60;8.30;;;;;;;;;;5014512;28;20621;-86
2022/03/28 06:58:43;;;;;;;15.67;6.20;;;;;;;;;;5014541;28;20192;-87
2022/03/28 07:01:11;;;;;;;15.93;6.80;;;;;;;;;;5014478;28;20579;-86
2022/03/28 07:03:38;;;;;;;9.07;6.70;;;;;;;;;;5014379;28;20204;-87
2022/03/28 07:06:07;;;;;;;11.50;6.53;;;;;;;;;;5013837;28;20209;-87
2022/03/28 07:08:35;;;;;;;11.33;6.73;;;;;;;;;;5013919;28;20195;-87
2022/03/28 07:11:02;;;;;;;9.63;6.87;;;;;;;;;;5014280;28;20234;-87
2022/03/28 07:13:30;;;;;;;9.70;6.40;;;;;;;;;;5014200;28;20297;-87
2022/03/28 07:15:57;;;;;;;10.13;7.70;;;;;;;;;;5013921;28;20206;-87
2022/03/28 07:18:24;;;;;;;9.20;7.63;;;;;;;;;;5013877;28;20698;-87
2022/03/28 07:20:51;;;;;;;14.13;6.87;;;;;;;;;;5013611;28;20682;-87
2022/03/28 07:23:20;;;;;;;11.47;6.43;;;;;;;;;;5013498;28;20205;-87
2022/03/28 07:25:47;;;;;;;10.13;6.63;;;;;;;;;;5013566;28;20664;-86
2022/03/28 07:28:17;;;;;;;8.77;6.57;;;;;;;;;;5013383;28;20246;-87
2022/03/28 07:30:44;;;;;;;13.07;6.97;;;;;;;;;;5013255;28;20203;-87
2022/03/28 07:33:11;;;;;;;12.47;7.00;;;;;;;;;;5013979;28;20304;-87
2022/03/28 07:35:40;;;;;;;8.43;7.03;;;;;;;;;;5013510;28;20234;-88
2022/03/28 07:38:10;;;;;;;8.60;6.60;;;;;;;;;;5013523;28;20196;-87
2022/03/28 07:40:40;;;;;;;13.33;8.07;;;;;;;;;;5013550;28;20206;-87
2022/03/28 07:43:08;;;;;;;10.27;7.00;;;;;;;;;;5013758;28;20187;-88
2022/03/28 07:45:36;;;;;;;14.43;8.43;;;;;;;;;;5013588;28;20249;-86
2022/03/28 07:48:05;;;;;;;9.00;6.33;;;;;;;;;;5013396;28;20274;-88
2022/03/28 07:50:32;;;;;;;8.37;6.43;;;;;;;;;;5013338;28;20294;-86
2022/03/28 07:52:59;;;;;;;12.20;6.03;;;;;;;;;;5013399;28;20204;-86
2022/03/28 07:55:28;;;;;;;11.93;6.33;;;;;;;;;;5013230;28;20261;-85
2022/03/28 07:57:59;;;;;;;9.33;6.87;;;;;;;;;;5013298;28;20226;-86
2022/03/28 08:00:26;;;;;;;10.43;6.83;;;;;;;;;;5013302;28;20275;-86
2022/03/28 08:02:53;;;;;;;10.53;8.13;;;;;;;;;;5013594;28;20223;-86
2022/03/28 08:05:21;;;;;;;14.20;7.40;;;;;;;;;;5013540;28;20291;-86
2022/03/28 08:07:48;;;;;;;12.07;6.77;;;;;;;;;;5013897;28;20652;-86
2022/03/28 08:10:16;;;;;;;13.27;7.10;;;;;;;;;;5013139;28;20286;-86
2022/03/28 08:12:43;;;;;;;10.77;6.30;;;;;;;;;;5013490;28;20212;-86
2022/03/28 08:15:13;;;;;;;11.07;6.63;;;;;;;;;;5013629;28;20223;-86
2022/03/28 08:17:41;;;;;;;15.20;7.33;;;;;;;;;;5013358;28;20206;-86
2022/03/28 08:20:10;;;;;;;9.57;7.07;;;;;;;;;;5012857;28;20199;-86
2022/03/28 08:22:38;;;;;;;11.00;7.13;;;;;;;;;;5013171;28;20199;-86
2022/03/28 08:25:05;;;;;;;15.70;6.73;;;;;;;;;;5013508;28;20642;-86
2022/03/28 08:27:33;;;;;;;12.57;7.47;;;;;;;;;;5013392;28;20609;-86
2022/03/28 08:30:00;;;;;;;9.13;7.30;;;;;;;;;;5012957;28;20203;-85
2022/03/28 08:32:29;;;;;;;7.07;6.37;;;;;;;;;;5013177;28;20297;-86
2022/03/28 08:34:56;;;;;;;12.90;7.47;;;;;;;;;;5012548;28;20239;-87
2022/03/28 08:37:24;;;;;;;10.10;6.97;;;;;;;;;;5013201;28;20200;-86
2022/03/28 08:39:54;;;;;;;11.80;7.00;;;;;;;;;;5012951;28;20199;-87
2022/03/28 08:42:22;;;;;;;11.53;7.20;;;;;;;;;;5012961;28;20195;-86
2022/03/28 08:44:50;;;;;;;13.17;7.80;;;;;;;;;;5013174;28;20257;-86
2022/03/28 08:47:19;;;;;;;9.90;7.93;;;;;;;;;;5012911;28;20200;-87
2022/03/28 08:49:49;;;;;;;10.10;7.67;;;;;;;;;;5013135;28;20290;-87
2022/03/28 08:52:17;;;;;;;9.80;7.67;;;;;;;;;;5012692;28;20189;-86
2022/03/28 08:54:44;;;;;;;10.50;7.63;;;;;;;;;;5012516;28;20278;-87
2022/03/28 08:57:12;;;;;;;10.37;7.63;;;;;;;;;;5012866;28;20204;-86
2022/03/28 08:59:40;;;;;;;16.20;7.63;;;;;;;;;;5012887;28;20205;-87
2022/03/28 09:02:07;;;;;;;11.17;7.43;;;;;;;;;;5014379;28;20231;-87
2022/03/28 09:04:37;;;;;;;11.57;8.07;;;;;;;;;;5016434;28;20691;-87
2022/03/28 09:07:05;;;;;;;8.67;7.67;;;;;;;;;;5017876;28;20209;-87
2022/03/28 09:09:34;;;;;;;12.10;7.63;;;;;;;;;;5016772;28;20291;-86
2022/03/28 09:12:08;;;;;;;9.07;7.57;;;;;;;;;;5017279;28;20196;-87
2022/03/28 09:14:37;;;;;;;11.47;7.47;;;;;;;;;;5016286;28;20243;-87
2022/03/28 09:17:06;;;;;;;10.93;7.33;;;;;;;;;;5016782;28;20284;-87
2022/03/28 09:19:48;;;;;;;10.23;7.93;;;;;;;;;;5016671;28;20642;-87
2022/03/28 09:22:19;;;;;;;12.57;7.33;;;;;;;;;;5016460;28;20292;-87
2022/03/28 09:24:46;;;;;;;13.63;7.40;;;;;;;;;;5016380;28;20196;-87
2022/03/28 09:27:15;;;;;;;10.13;7.07;;;;;;;;;;5016247;28;20233;-87
2022/03/28 09:30:00;;;;;;;12.47;7.90;;;;;;;;;;5016758;28;20200;-86
2022/03/28 09:32:28;;;;;;;10.97;7.57;;;;;;;;;;5016477;28;20188;-87
2022/03/28 09:35:10;;;;;;;9.77;7.23;;;;;;;;;;5015938;28;20277;-87
2022/03/28 09:37:58;;;;;;;15.83;7.43;;;;;;;;;;5016207;28;20209;-87
2022/03/28 09:40:31;;;;;;;14.40;8.97;;;;;;;;;;5016360;28;20245;-87
2022/03/28 09:42:59;;;;;;;13.97;8.23;;;;;;;;;;5016054;28;20698;-87
2022/03/28 09:45:28;;;;;;;12.23;7.13;;;;;;;;;;5016362;28;20195;-87
2022/03/28 09:47:59;;;;;;;12.20;8.30;;;;;;;;;;5016777;28;20199;-87
2022/03/28 09:50:31;;;;;;;10.93;7.63;;;;;;;;;;5015985;28;20191;-87
2022/03/28 09:53:10;;;;;;;9.77;7.87;;;;;;;;;;5015856;28;20237;-87
2022/03/28 09:55:52;;;;;;;13.10;8.73;;;;;;;;;;5016051;28;20210;-87
2022/03/28 09:58:39;;;;;;;10.83;7.73;;;;;;;;;;5015764;28;20716;-87
2022/03/28 10:01:08;;;;;;;9.60;7.73;;;;;;;;;;5018621;28;20206;-87
2022/03/28 10:03:36;;;;;;;11.40;8.20;;;;;;;;;;5015736;28;20210;-87
2022/03/28 10:06:05;;;;;;;9.90;7.27;;;;;;;;;;5015728;28;20195;-88
2022/03/28 10:08:35;;;;;;;11.77;8.63;;;;;;;;;;5015856;28;20285;-88
2022/03/28 10:11:03;;;;;;;11.70;7.60;;;;;;;;;;5015246;28;20201;-87
2022/03/28 10:13:31;;;;;;;9.63;7.50;;;;;;;;;;5015530;28;20269;-88
2022/03/28 10:15:58;;;;;;;14.37;8.43;;;;;;;;;;5015135;28;20318;-87
2022/03/28 10:18:28;;;;;;;13.23;8.50;;;;;;;;;;5016194;28;20209;-88
2022/03/28 10:20:56;;;;;;;11.23;7.23;;;;;;;;;;5015497;28;20221;-88
2022/03/28 10:23:28;;;;;;;10.57;6.97;;;;;;;;;;5015538;28;20286;-88
2022/03/28 10:25:58;;;;;;;9.33;7.30;;;;;;;;;;5015913;28;20194;-88
2022/03/28 10:28:25;;;;;;;11.10;7.77;;;;;;;;;;5015274;28;20206;-88
2022/03/28 10:31:10;;;;;;;9.47;7.60;;;;;;;;;;5015363;28;20642;-88
2022/03/28 10:33:47;;;;;;;9.97;7.23;;;;;;;;;;5015068;28;20265;-88
2022/03/28 10:36:23;;;;;;;10.73;9.13;;;;;;;;;;5014992;28;20237;-88
2022/03/28 10:38:51;;;;;;;10.07;7.80;;;;;;;;;;5014981;28;20199;-88
2022/03/28 10:41:22;;;;;;;10.43;7.23;;;;;;;;;;5015180;28;20257;-88
2022/03/28 10:43:49;;;;;;;8.60;7.73;;;;;;;;;;5015310;28;20672;-88
2022/03/28 10:46:19;;;;;;;11.33;7.47;;;;;;;;;;5014802;28;20233;-88
2022/03/28 10:48:48;;;;;;;17.03;7.70;;;;;;;;;;5015427;28;20195;-88
2022/03/28 10:51:17;;;;;;;11.00;7.87;;;;;;;;;;5015147;28;20722;-88
2022/03/28 10:53:47;;;;;;;9.47;7.20;;;;;;;;;;5014873;28;20202;-88
2022/03/28 10:56:16;;;;;;;9.13;7.33;;;;;;;;;;5014932;28;20220;-88
2022/03/28 10:58:47;;;;;;;13.20;8.00;;;;;;;;;;5015251;28;20605;-88
2022/03/28 11:01:20;;;;;;;17.43;8.07;;;;;;;;;;5015491;28;20199;-87
2022/03/28 11:03:49;;;;;;;9.27;8.23;;;;;;;;;;5014705;28;20235;-88
2022/03/28 11:06:19;;;;;;;10.17;6.80;;;;;;;;;;5015001;28;20309;-88
2022/03/28 11:08:47;;;;;;;11.27;8.20;;;;;;;;;;5014928;28;20258;-88
2022/03/28 11:11:19;;;;;;;9.53;7.60;;;;;;;;;;5014574;28;20203;-88
2022/03/28 11:14:01;;;;;;;15.30;8.27;;;;;;;;;;5015002;28;20267;-88
2022/03/28 11:16:43;;;;;;;11.53;7.83;;;;;;;;;;5014666;28;20302;-88
2022/03/28 11:19:25;;;;;;;11.13;8.23;;;;;;;;;;5014791;28;20226;-88
2022/03/28 11:22:08;;;;;;;15.00;8.40;;;;;;;;;;5014549;28;20195;-88
2022/03/28 11:24:43;;;;;;;9.70;8.70;;;;;;;;;;5013525;28;20199;-88
2022/03/28 11:27:11;;;;;;;11.17;7.70;;;;;;;;;;5014047;28;20273;-88
2022/03/28 11:29:40;;;;;;;14.17;7.97;;;;;;;;;;5014204;28;20206;-88
2022/03/28 11:32:08;;;;;;;12.20;7.60;;;;;;;;;;5014622;28;20199;-88
2022/03/28 11:34:35;;;;;;;14.43;7.77;;;;;;;;;;5014213;28;20239;-88
2022/03/28 11:37:04;;;;;;;11.40;8.30;;;;;;;;;;5014414;28;20196;-88
2022/03/28 11:39:32;;;;;;;10.13;6.87;;;;;;;;;;5014296;28;20199;-88
2022/03/28 11:41:59;;;;;;;9.90;7.33;;;;;;;;;;5014076;28;20195;-88
2022/03/28 11:44:27;;;;;;;10.47;7.60;;;;;;;;;;5014141;28;20663;-88
2022/03/28 11:46:57;;;;;;;12.27;7.43;;;;;;;;;;5014118;28;20195;-88
2022/03/28 11:49:24;;;;;;;9.40;7.23;;;;;;;;;;5014210;28;20195;-88
2022/03/28 11:51:52;;;;;;;9.70;6.73;;;;;;;;;;5013738;28;20238;-88
2022/03/28 11:54:22;;;;;;;8.90;7.30;;;;;;;;;;5013810;28;20234;-88
2022/03/28 11:59:39;;;;;;;11.57;7.53;;;;;;;;;;5013596;28;20190;-88
2022/03/28 12:02:08;;;;;;;10.60;7.07;;;;;;;;;;5013912;28;20595;-88
2022/03/28 12:04:44;;;;;;;11.07;7.30;;;;;;;;;;5013594;28;20199;-87
2022/03/28 12:07:12;;;;;;;9.73;7.83;;;;;;;;;;5013450;28;20255;-88
2022/03/28 12:09:43;;;;;;;13.20;7.70;;;;;;;;;;5014429;28;20203;-87
2022/03/28 12:12:10;;;;;;;8.53;7.70;;;;;;;;;;5014180;28;20199;-88
2022/03/28 12:14:38;;;;;;;20.43;8.17;;;;;;;;;;5013391;28;20235;-87
2022/03/28 12:17:08;;;;;;;9.40;7.67;;;;;;;;;;5013422;28;20195;-88
2022/03/28 12:19:35;;;;;;;7.90;6.97;;;;;;;;;;5013224;28;20206;-88
2022/03/28 12:22:14;;;;;;;10.03;7.43;;;;;;;;;;5012310;28;20219;-87
2022/03/28 12:24:50;;;;;;;10.97;7.53;;;;;;;;;;5014376;28;20745;-87
2022/03/28 12:27:19;;;;;;;11.63;7.83;;;;;;;;;;5013934;28;20187;-88
2022/03/28 12:29:46;;;;;;;8.50;6.97;;;;;;;;;;5013978;28;20201;-87
2022/03/28 12:32:17;;;;;;;10.57;8.40;;;;;;;;;;5013551;28;20289;-87
2022/03/28 12:34:44;;;;;;;9.43;7.90;;;;;;;;;;5013519;28;20238;-88
2022/03/28 12:37:15;;;;;;;10.43;7.73;;;;;;;;;;5017032;28;20241;-88
2022/03/28 12:39:44;;;;;;;7.90;6.50;;;;;;;;;;5017641;28;20234;-87
2022/03/28 12:42:25;;;;;;;11.70;6.63;;;;;;;;;;5018376;28;20629;-87
2022/03/28 12:44:54;;;;;;;11.07;7.67;;;;;;;;;;5017257;28;20249;-88
2022/03/28 12:47:27;;;;;;;18.47;8.63;;;;;;;;;;5017359;28;20208;-87
2022/03/28 12:49:55;;;;;;;72.63;58.07;;;;;;;;;;5017011;28;20698;-87
2022/03/28 12:52:24;;;;;;;14.13;10.67;;;;;;;;;;5017780;28;20203;-87
2022/03/28 12:54:55;;;;;;;10.33;7.63;;;;;;;;;;5017181;28;20202;-87
2022/03/28 12:57:27;;;;;;;14.27;7.70;;;;;;;;;;5017033;28;20572;-87
2022/03/28 12:59:55;;;;;;;15.20;9.27;;;;;;;;;;5017148;28;20658;-87
2022/03/28 13:02:24;;;;;;;66.97;59.97;;;;;;;;;;5016676;28;20198;-87
2022/03/28 13:04:52;;;;;;;119.40;85.17;;;;;;;;;;5016670;28;20217;-86
2022/03/28 13:07:21;;;;;;;295.67;219.33;;;;;;;;;;5016312;28;20299;-87
2022/03/28 13:09:55;;;;;;;353.00;282.17;;;;;;;;;;5016367;28;20208;-87
2022/03/28 13:12:33;;;;;;;46.73;39.00;;;;;;;;;;5016832;28;20263;-87
2022/03/28 13:15:01;;;;;;;83.93;75.13;;;;;;;;;;5016426;28;20197;-87
2022/03/28 13:17:29;;;;;;;23.07;19.73;;;;;;;;;;5016703;28;20214;-87
2022/03/28 13:19:58;;;;;;;14.13;12.47;;;;;;;;;;5016133;28;20573;-87
2022/03/28 13:22:30;;;;;;;10.67;8.37;;;;;;;;;;5016964;28;20218;-87
2022/03/28 13:25:11;;;;;;;10.97;9.90;;;;;;;;;;5016522;28;20610;-87
2022/03/28 13:30:24;;;;;;;14.00;9.73;;;;;;;;;;5016394;28;20286;-87
2022/03/28 13:32:53;;;;;;;9.77;8.23;;;;;;;;;;5017231;28;20232;-87
2022/03/28 13:35:20;;;;;;;11.67;8.60;;;;;;;;;;5016235;28;20724;-87
2022/03/28 13:37:55;;;;;;;11.53;7.23;;;;;;;;;;5016234;28;20293;-87
2022/03/28 13:40:22;;;;;;;10.77;8.17;;;;;;;;;;5016332;28;20650;-87
2022/03/28 13:42:50;;;;;;;11.83;7.67;;;;;;;;;;5016264;28;20661;-87
2022/03/28 13:45:17;;;;;;;15.13;8.10;;;;;;;;;;5015908;28;20196;-87
2022/03/28 13:47:45;;;;;;;19.70;11.87;;;;;;;;;;5015664;28;20201;-87
2022/03/28 13:50:14;;;;;;;10.40;7.53;;;;;;;;;;5016349;28;20608;-87
2022/03/28 13:52:41;;;;;;;14.93;9.97;;;;;;;;;;5015936;28;20287;-87
2022/03/28 13:55:09;;;;;;;12.37;9.70;;;;;;;;;;5015806;28;20293;-87
2022/03/28 13:57:36;;;;;;;8.20;7.07;;;;;;;;;;5016329;28;20202;-87
2022/03/28 14:00:04;;;;;;;11.70;7.80;;;;;;;;;;5016260;28;20660;-87
2022/03/28 14:02:32;;;;;;;15.60;11.50;;;;;;;;;;5015638;28;20294;-87
2022/03/28 14:05:01;;;;;;;10.57;7.93;;;;;;;;;;5015912;28;20261;-87
2022/03/28 14:07:30;;;;;;;12.03;9.87;;;;;;;;;;5015835;28;20208;-87
2022/03/28 14:09:58;;;;;;;40.43;21.83;;;;;;;;;;5015736;28;20216;-87
2022/03/28 14:12:25;;;;;;;12.60;8.97;;;;;;;;;;5015585;28;20331;-87
2022/03/28 14:14:53;;;;;;;15.17;12.73;;;;;;;;;;5015384;28;20207;-87
2022/03/28 14:17:20;;;;;;;19.53;12.40;;;;;;;;;;5015378;28;20226;-87
2022/03/28 14:19:47;;;;;;;16.70;10.90;;;;;;;;;;5015225;28;20285;-86
2022/03/28 14:22:14;;;;;;;15.20;10.97;;;;;;;;;;5015309;28;20202;-87
2022/03/28 14:24:43;;;;;;;15.57;12.63;;;;;;;;;;5015161;28;20198;-87
2022/03/28 14:27:10;;;;;;;15.37;12.20;;;;;;;;;;5015531;28;20224;-87
2022/03/28 14:29:38;;;;;;;20.70;15.90;;;;;;;;;;5015272;28;20200;-87
2022/03/28 14:32:07;;;;;;;21.30;16.10;;;;;;;;;;5015383;28;20232;-87
2022/03/28 14:34:35;;;;;;;25.63;18.93;;;;;;;;;;5014982;28;20244;-87
2022/03/28 14:37:02;;;;;;;22.63;16.57;;;;;;;;;;5014880;28;20231;-87
2022/03/28 14:39:29;;;;;;;22.80;17.67;;;;;;;;;;5015090;28;20231;-87
2022/03/28 14:41:59;;;;;;;23.37;15.57;;;;;;;;;;5014849;28;20752;-86
2022/03/28 14:44:26;;;;;;;32.60;26.17;;;;;;;;;;5015037;28;20199;-87
2022/03/28 14:47:02;;;;;;;37.13;29.53;;;;;;;;;;5014633;28;20203;-87